MMVR/VER METAR and TAF weather

Enter ICAO airport designator
Station Type Date Time Source
MMVR METAR 2021/03/07 04:43 UTC NOAA

MMVR 070443Z 36015KT 7SM SCT008 BKN030 22/16 A3018 RMK 8/800 HZY


Station Type Date Time Source
MMVR Decoded METAR 2021/03/07 04:43 UTC NOAA

Veracruz / Las Bajadas / General Heriberto Jara, Mexico (MMVR) 19-09N 096-11W
Mar 06, 2021 - 11:43 PM EST / 2021.03.07 0443 UTC
Wind: from the N (360 degrees) at 17 MPH (15 KT):0
Visibility: 7 mile(s):0
Sky conditions: mostly cloudy
Temperature: 71 F (22 C)
Dew Point: 60 F (16 C)
Relative Humidity: 68%
Pressure (altimeter): 30.18 in. Hg (1022 hPa)
ob: MMVR 070443Z 36015KT 7SM SCT008 BKN030 22/16 A3018 RMK 8/800 HZY
cycle: 4

Station Type Date Time Source
MMVR TAF 2021/03/07 06:35 UTC NOAA

TAF MMVR 070426Z 0706/0806 36015KT P6SM SCT010 BKN030 TX28/0720Z TN20/0712Z
FM071600 36010KT P6SM BKN020
FM080200 03005KT P6SM SCT015

Example: see airport list